createdAt,value
2023-03-12T00:03:13.867Z,0.69
2023-03-12T00:08:16.948Z,0.68
2023-03-12T00:13:20.261Z,0.66
2023-03-12T00:18:24.748Z,0.66
2023-03-12T00:23:28.035Z,0.66
2023-03-12T00:28:31.264Z,0.64
2023-03-12T00:33:35.836Z,0.63
2023-03-12T00:38:38.975Z,0.63
2023-03-12T00:43:42.073Z,0.64
2023-03-12T00:48:47.400Z,0.62
2023-03-12T00:53:50.758Z,0.59
2023-03-12T00:58:54.181Z,0.59
2023-03-12T01:03:59.954Z,0.58
2023-03-12T01:09:05.229Z,0.56
2023-03-12T01:14:09.844Z,0.57
2023-03-12T01:19:14.802Z,0.55
2023-03-12T01:24:18.097Z,0.54
2023-03-12T01:29:21.222Z,0.51
2023-03-12T01:34:27.693Z,0.51
2023-03-12T01:39:30.834Z,0.50
2023-03-12T01:44:56.466Z,0.49
2023-03-12T01:50:03.395Z,0.46
2023-03-12T01:55:10.645Z,0.45
2023-03-12T02:00:18.487Z,0.44
2023-03-12T02:05:29.345Z,0.44
2023-03-12T02:10:33.191Z,0.41
2023-03-12T02:15:38.463Z,0.40
2023-03-12T02:20:50.570Z,0.40
2023-03-12T02:25:57.198Z,0.38
2023-03-12T02:31:03.896Z,0.37
2023-03-12T02:36:08.216Z,0.36
2023-03-12T02:41:19.727Z,0.36
2023-03-12T02:46:24.716Z,0.35
2023-03-12T02:51:28.193Z,0.35
2023-03-12T02:56:32.853Z,0.34
2023-03-12T03:01:36.653Z,0.34
2023-03-12T03:06:44.165Z,0.33
2023-03-12T03:11:48.964Z,0.31
2023-03-12T03:16:52.688Z,0.29
2023-03-12T03:21:55.885Z,0.27
2023-03-12T03:27:00.427Z,0.26
2023-03-12T03:32:05.492Z,0.23
2023-03-12T03:37:08.624Z,0.22
2023-03-12T03:42:13.357Z,0.22
2023-03-12T03:47:16.917Z,0.22
2023-03-12T03:52:20.166Z,0.22
2023-03-12T03:57:24.963Z,0.23
2023-03-12T04:02:29.061Z,0.22
2023-03-12T04:07:32.617Z,0.21
2023-03-12T04:12:37.077Z,0.20
2023-03-12T04:17:40.396Z,0.18
2023-03-12T04:22:43.658Z,0.16
2023-03-12T04:27:48.159Z,0.14
2023-03-12T04:32:51.387Z,0.13
2023-03-12T04:37:54.556Z,0.11
2023-03-12T04:42:59.308Z,0.11
2023-03-12T04:48:02.506Z,0.09
2023-03-12T04:53:05.694Z,0.09
2023-03-12T04:58:10.237Z,0.07
2023-03-12T05:03:13.323Z,0.05
2023-03-12T05:08:16.526Z,0.05
2023-03-12T05:13:22.760Z,0.06
2023-03-12T05:18:27.000Z,0.04
2023-03-12T05:23:30.832Z,0.05
2023-03-12T05:28:35.338Z,0.04
2023-03-12T05:33:38.970Z,0.06
2023-03-12T05:38:42.740Z,0.07
2023-03-12T05:43:47.453Z,0.08
2023-03-12T05:48:50.771Z,0.09
2023-03-12T05:53:54.112Z,0.11
2023-03-12T05:59:02.329Z,0.15
2023-03-12T06:04:06.084Z,0.17
2023-03-12T06:09:13.151Z,0.23
2023-03-12T06:14:17.583Z,0.26
2023-03-12T06:19:22.033Z,0.33
2023-03-12T06:24:26.450Z,0.43
2023-03-12T06:29:31.086Z,0.57
2023-03-12T06:34:34.576Z,0.80
2023-03-12T06:39:37.728Z,1.12
2023-03-12T06:44:42.339Z,1.40
2023-03-12T06:49:45.485Z,1.58
2023-03-12T06:54:48.622Z,1.81
2023-03-12T06:59:53.248Z,3.07
2023-03-12T07:04:56.515Z,4.22
2023-03-12T07:10:00.628Z,4.65
2023-03-12T07:15:05.735Z,6.14
2023-03-12T07:20:10.287Z,8.05
2023-03-12T07:25:13.523Z,7.70
2023-03-12T07:30:18.873Z,8.96
2023-03-12T07:35:22.427Z,8.82
2023-03-12T07:40:25.884Z,9.14
2023-03-12T07:45:31.409Z,8.79
2023-03-12T07:50:34.811Z,8.38
2023-03-12T07:55:38.152Z,8.46
2023-03-12T08:00:44.280Z,8.61
2023-03-12T08:05:56.709Z,8.40
2023-03-12T08:11:00.744Z,8.21
2023-03-12T08:16:07.658Z,8.98
2023-03-12T08:21:16.332Z,8.78
2023-03-12T08:26:19.761Z,8.71
2023-03-12T08:31:24.786Z,8.82
2023-03-12T08:36:28.341Z,8.71
2023-03-12T08:41:31.827Z,9.11
2023-03-12T08:46:36.375Z,8.99
2023-03-12T08:51:39.508Z,8.89
2023-03-12T08:56:43.841Z,8.70
2023-03-12T09:01:48.884Z,8.79
2023-03-12T09:06:52.178Z,8.79
2023-03-12T09:11:55.710Z,8.65
2023-03-12T09:17:00.300Z,8.65
2023-03-12T09:22:03.710Z,8.38
2023-03-12T09:27:06.924Z,8.19
2023-03-12T09:32:11.502Z,7.89
2023-03-12T09:37:14.754Z,8.15
2023-03-12T09:42:24.899Z,8.19
2023-03-12T09:47:32.696Z,8.30
2023-03-12T09:52:41.272Z,8.49
2023-03-12T09:57:45.515Z,8.73
2023-03-12T10:03:10.532Z,8.62
2023-03-12T10:08:26.918Z,8.81
2023-03-12T10:13:51.785Z,8.64
2023-03-12T10:19:12.497Z,8.59
2023-03-12T10:24:31.744Z,8.58
2023-03-12T10:29:40.700Z,8.52
2023-03-12T10:34:48.932Z,8.57
2023-03-12T10:39:54.023Z,8.75
2023-03-12T10:45:01.648Z,9.13
2023-03-12T10:50:19.470Z,9.19
2023-03-12T10:55:26.578Z,9.24
2023-03-12T11:00:33.537Z,9.16
2023-03-12T11:05:48.650Z,9.13
2023-03-12T11:10:51.846Z,9.24
2023-03-12T11:15:56.493Z,9.32
2023-03-12T11:21:17.219Z,9.29
2023-03-12T11:26:22.815Z,9.13
2023-03-12T11:31:30.738Z,9.20
2023-03-12T11:36:49.164Z,9.37
2023-03-12T11:42:08.290Z,9.40
2023-03-12T11:47:21.635Z,9.22
2023-03-12T11:52:38.481Z,9.29
2023-03-12T11:57:52.063Z,9.19
2023-03-12T12:03:20.659Z,9.23
2023-03-12T12:08:47.005Z,9.18
2023-03-12T12:14:04.794Z,9.18
2023-03-12T12:19:21.531Z,9.19
2023-03-12T12:24:41.244Z,9.26
2023-03-12T12:30:07.029Z,9.40
2023-03-12T12:35:23.797Z,9.37
2023-03-12T12:40:32.495Z,9.40
2023-03-12T12:45:40.743Z,9.51
2023-03-12T12:50:50.428Z,9.42
2023-03-12T12:56:04.158Z,9.42
2023-03-12T13:01:09.365Z,9.31
2023-03-12T13:06:12.944Z,9.23
2023-03-12T13:11:28.655Z,9.20
2023-03-12T13:16:34.595Z,9.26
2023-03-12T13:21:41.488Z,9.23
2023-03-12T13:26:55.341Z,9.05
2023-03-12T13:31:59.175Z,8.93
2023-03-12T13:37:18.914Z,8.67
2023-03-12T13:42:39.598Z,8.55
2023-03-12T13:47:48.129Z,8.39
2023-03-12T13:53:02.462Z,8.23
2023-03-12T13:58:16.044Z,8.22
2023-03-12T14:03:23.371Z,8.13
2023-03-12T14:08:45.055Z,8.12
2023-03-12T14:14:11.368Z,8.03
2023-03-12T14:19:15.740Z,7.92
2023-03-12T14:24:26.370Z,7.91
2023-03-12T14:29:37.284Z,7.94
2023-03-12T14:34:44.262Z,7.86
2023-03-12T14:39:52.110Z,7.74
2023-03-12T14:45:02.438Z,7.70
2023-03-12T14:50:06.724Z,7.70
2023-03-12T14:55:15.225Z,7.78
2023-03-12T15:00:28.691Z,7.82
2023-03-12T15:05:34.633Z,7.77
2023-03-12T15:10:40.951Z,7.82
2023-03-12T15:15:49.921Z,7.78
2023-03-12T15:20:54.565Z,7.78
2023-03-12T15:26:12.694Z,7.82
2023-03-12T15:31:18.669Z,7.86
2023-03-12T15:36:27.157Z,7.91
2023-03-12T15:41:43.016Z,7.91
2023-03-12T15:46:49.214Z,7.90
2023-03-12T15:52:26.519Z,7.91
2023-03-12T15:57:30.302Z,7.89
2023-03-12T16:02:39.924Z,7.88
2023-03-12T16:07:43.222Z,7.91
2023-03-12T16:12:47.573Z,7.92
2023-03-12T16:17:52.148Z,7.93
2023-03-12T16:22:57.302Z,7.94
2023-03-12T16:28:04.515Z,7.98
2023-03-12T16:33:09.756Z,8.00
2023-03-12T16:38:12.977Z,8.03
2023-03-12T16:43:19.260Z,8.01
2023-03-12T16:48:26.649Z,8.06
2023-03-12T16:53:30.762Z,8.06
2023-03-12T16:58:33.878Z,8.08
2023-03-12T17:03:42.293Z,8.05
2023-03-12T17:08:45.338Z,8.08
2023-03-12T17:13:53.160Z,8.11
2023-03-12T17:18:58.108Z,8.12
2023-03-12T17:24:01.554Z,8.11
2023-03-12T17:29:04.845Z,8.13
2023-03-12T17:34:09.290Z,8.14
2023-03-12T17:39:12.717Z,8.11
2023-03-12T17:44:16.048Z,8.11
2023-03-12T17:49:20.681Z,8.05
2023-03-12T17:54:34.330Z,8.03
2023-03-12T17:59:37.654Z,8.05
2023-03-12T18:04:45.903Z,8.07
2023-03-12T18:09:50.119Z,8.13
2023-03-12T18:14:56.444Z,8.17
2023-03-12T18:20:02.805Z,8.22
2023-03-12T18:30:29.497Z,8.30
2023-03-12T18:35:35.176Z,8.33
2023-03-12T18:40:39.365Z,8.37
2023-03-12T18:45:44.178Z,8.40
2023-03-12T18:50:48.983Z,8.44
2023-03-12T18:55:53.891Z,8.50
2023-03-12T19:00:59.059Z,8.56
2023-03-12T19:06:05.073Z,8.58
2023-03-12T19:11:13.876Z,8.59
2023-03-12T19:16:20.045Z,8.56
2023-03-12T19:21:25.792Z,8.53
2023-03-12T19:26:28.868Z,8.54
2023-03-12T19:31:32.256Z,8.56
2023-03-12T19:36:36.981Z,8.65
2023-03-12T19:41:41.121Z,8.65
2023-03-12T19:46:48.333Z,8.66
2023-03-12T19:51:53.038Z,8.65
2023-03-12T19:56:58.464Z,8.67
2023-03-12T20:02:01.735Z,8.69
2023-03-12T20:07:06.414Z,8.72
2023-03-12T20:12:09.964Z,8.74
2023-03-12T20:17:13.336Z,8.76
2023-03-12T20:22:26.514Z,8.77
2023-03-12T20:27:31.071Z,8.72
2023-03-12T20:32:34.460Z,8.75
2023-03-12T20:37:39.058Z,8.79
2023-03-12T20:42:43.556Z,8.80
2023-03-12T20:47:47.171Z,8.87
2023-03-12T20:52:52.882Z,8.93
2023-03-12T20:57:56.049Z,8.98
2023-03-12T21:03:00.581Z,9.02
2023-03-12T21:08:06.605Z,9.06
2023-03-12T21:13:10.190Z,9.10
2023-03-12T21:18:13.695Z,9.13
2023-03-12T21:23:18.738Z,9.15
2023-03-12T21:28:22.090Z,9.15
2023-03-12T21:33:25.407Z,9.16
2023-03-12T21:38:31.230Z,9.13
2023-03-12T21:43:34.546Z,9.10
2023-03-12T21:48:37.995Z,9.02
2023-03-12T21:53:42.581Z,8.98
2023-03-12T21:58:45.646Z,8.91
2023-03-12T22:03:48.886Z,8.85
2023-03-12T22:08:53.417Z,8.82
2023-03-12T22:13:56.459Z,8.81
2023-03-12T22:18:59.752Z,8.82
2023-03-12T22:24:05.095Z,8.81
2023-03-12T22:29:08.238Z,8.82
2023-03-12T22:34:11.506Z,8.80
2023-03-12T22:39:17.471Z,8.81
2023-03-12T22:44:20.874Z,8.80
2023-03-12T22:49:24.148Z,8.81
2023-03-12T22:54:28.728Z,8.85
2023-03-12T22:59:31.854Z,8.84
2023-03-12T23:04:35.597Z,8.84
2023-03-12T23:09:40.384Z,8.86
2023-03-12T23:14:44.185Z,8.85
2023-03-12T23:19:47.541Z,8.88
2023-03-12T23:24:52.402Z,8.90
2023-03-12T23:29:55.741Z,8.99
2023-03-12T23:35:10.992Z,9.04
2023-03-12T23:40:17.000Z,9.05
2023-03-12T23:45:20.217Z,9.08
2023-03-12T23:50:23.459Z,9.11
2023-03-12T23:55:27.983Z,9.11
